createdAt,value
2022-11-05T00:00:17.413Z,6.70
2022-11-05T00:03:23.901Z,6.70
2022-11-05T00:06:29.116Z,6.70
2022-11-05T00:09:36.969Z,6.70
2022-11-05T00:12:42.039Z,6.70
2022-11-05T00:15:47.430Z,6.80
2022-11-05T00:18:37.257Z,6.80
2022-11-05T00:21:43.086Z,6.80
2022-11-05T00:24:47.960Z,6.80
2022-11-05T00:27:35.943Z,6.80
2022-11-05T00:30:26.695Z,6.80
2022-11-05T00:33:14.964Z,6.90
2022-11-05T00:36:07.568Z,6.90
2022-11-05T00:38:55.149Z,6.90
2022-11-05T00:41:43.016Z,6.90
2022-11-05T00:44:48.330Z,6.90
2022-11-05T00:47:53.806Z,6.90
2022-11-05T00:50:42.053Z,6.80
2022-11-05T00:53:30.606Z,6.80
2022-11-05T00:56:17.845Z,7.00
2022-11-05T00:59:05.974Z,6.70
2022-11-05T01:01:53.046Z,6.70
2022-11-05T01:04:40.749Z,6.70
2022-11-05T01:07:28.818Z,6.70
2022-11-05T01:10:18.354Z,6.70
2022-11-05T01:13:10.170Z,6.80
2022-11-05T01:16:06.185Z,6.60
2022-11-05T01:18:53.827Z,6.60
2022-11-05T01:21:41.249Z,6.60
2022-11-05T01:24:28.883Z,6.60
2022-11-05T01:27:17.337Z,6.60
2022-11-05T01:30:05.994Z,6.60
2022-11-05T01:32:53.738Z,6.60
2022-11-05T01:35:41.718Z,6.60
2022-11-05T01:38:31.070Z,6.50
2022-11-05T01:41:18.197Z,6.50
2022-11-05T01:44:07.983Z,6.70
2022-11-05T01:46:55.976Z,6.50
2022-11-05T01:49:43.740Z,6.50
2022-11-05T01:52:33.382Z,6.50
2022-11-05T01:55:22.327Z,6.50
2022-11-05T01:58:10.903Z,6.40
2022-11-05T02:01:02.857Z,6.40
2022-11-05T02:03:51.924Z,6.30
2022-11-05T02:06:46.047Z,6.30
2022-11-05T02:09:36.110Z,6.20
2022-11-05T02:12:24.518Z,6.20
2022-11-05T02:15:13.712Z,6.20
2022-11-05T02:18:07.714Z,6.10
2022-11-05T02:21:01.958Z,6.10
2022-11-05T02:24:01.281Z,6.00
2022-11-05T02:27:10.120Z,6.00
2022-11-05T02:30:08.676Z,6.00
2022-11-05T02:33:03.498Z,6.00
2022-11-05T02:36:08.335Z,6.00
2022-11-05T02:39:02.186Z,5.90
2022-11-05T02:41:54.148Z,5.80
2022-11-05T02:44:45.615Z,5.80
2022-11-05T02:47:37.276Z,5.80
2022-11-05T02:50:31.576Z,5.70
2022-11-05T02:53:21.316Z,5.70
2022-11-05T02:56:11.402Z,5.70
2022-11-05T02:58:59.570Z,5.70
2022-11-05T03:01:49.073Z,5.70
2022-11-05T03:04:37.378Z,5.60
2022-11-05T03:07:32.289Z,5.70
2022-11-05T03:10:30.066Z,5.60
2022-11-05T03:13:19.549Z,4.20
2022-11-05T03:16:11.773Z,5.60
2022-11-05T03:19:02.351Z,5.50
2022-11-05T03:21:52.388Z,5.50
2022-11-05T03:24:43.909Z,5.50
2022-11-05T03:27:32.568Z,5.50
2022-11-05T03:30:20.319Z,5.50
2022-11-05T03:33:10.698Z,5.50
2022-11-05T03:36:00.737Z,5.50
2022-11-05T03:38:50.649Z,5.40
2022-11-05T03:41:40.755Z,5.40
2022-11-05T03:44:30.219Z,5.40
2022-11-05T03:47:19.909Z,5.40
2022-11-05T03:50:11.612Z,5.30
2022-11-05T03:53:01.972Z,5.30
2022-11-05T03:55:52.924Z,5.20
2022-11-05T03:58:44.158Z,5.20
2022-11-05T04:01:31.956Z,5.20
2022-11-05T04:04:19.442Z,5.20
2022-11-05T04:07:24.640Z,5.10
2022-11-05T04:10:29.806Z,5.10
2022-11-05T04:13:26.854Z,5.10
2022-11-05T04:16:39.574Z,5.00
2022-11-05T04:19:41.493Z,5.00
2022-11-05T04:22:46.937Z,5.00
2022-11-05T04:25:35.055Z,4.90
2022-11-05T04:28:43.447Z,4.90
2022-11-05T04:31:31.258Z,4.80
2022-11-05T04:34:23.381Z,4.80
2022-11-05T04:37:11.334Z,4.80
2022-11-05T04:39:59.503Z,4.80
2022-11-05T04:42:47.359Z,4.80
2022-11-05T04:45:35.627Z,4.80
2022-11-05T04:48:24.521Z,4.80
2022-11-05T04:51:12.817Z,4.80
2022-11-05T04:54:00.602Z,4.70
2022-11-05T04:56:48.339Z,4.70
2022-11-05T04:59:36.632Z,4.60
2022-11-05T05:02:24.677Z,4.70
2022-11-05T05:05:13.898Z,4.70
2022-11-05T05:08:02.620Z,4.60
2022-11-05T05:10:49.973Z,3.60
2022-11-05T05:13:37.930Z,4.70
2022-11-05T05:16:26.091Z,4.70
2022-11-05T05:19:13.313Z,4.70
2022-11-05T05:22:01.625Z,4.70
2022-11-05T05:24:52.792Z,4.80
2022-11-05T05:27:41.012Z,4.80
2022-11-05T05:30:28.922Z,4.80
2022-11-05T05:33:17.260Z,4.80
2022-11-05T05:36:10.952Z,4.80
2022-11-05T05:39:00.621Z,4.80
2022-11-05T05:41:48.744Z,4.90
2022-11-05T05:44:36.423Z,4.70
2022-11-05T05:47:23.820Z,4.60
2022-11-05T05:50:11.658Z,4.60
2022-11-05T05:52:59.705Z,4.60
2022-11-05T05:55:49.317Z,4.60
2022-11-05T05:58:40.333Z,4.60
2022-11-05T06:01:28.798Z,4.50
2022-11-05T06:04:16.062Z,4.40
2022-11-05T06:07:04.456Z,4.50
2022-11-05T06:09:51.797Z,4.50
2022-11-05T06:12:40.266Z,4.50
2022-11-05T06:15:30.538Z,4.50
2022-11-05T06:18:22.049Z,4.50
2022-11-05T06:21:11.676Z,4.40
2022-11-05T06:24:01.490Z,4.40
2022-11-05T06:26:49.094Z,4.40
2022-11-05T06:29:38.357Z,4.40
2022-11-05T06:32:26.224Z,4.40
2022-11-05T06:35:14.261Z,4.40
2022-11-05T06:38:01.772Z,4.40
2022-11-05T06:40:49.216Z,4.40
2022-11-05T06:43:37.068Z,4.40
2022-11-05T06:46:26.437Z,4.40
2022-11-05T06:49:13.700Z,4.40
2022-11-05T06:52:01.771Z,3.50
2022-11-05T06:54:50.037Z,4.40
2022-11-05T06:57:38.558Z,4.40
2022-11-05T07:00:26.396Z,4.40
2022-11-05T07:03:16.200Z,4.40
2022-11-05T07:06:04.497Z,4.50
2022-11-05T07:08:52.579Z,4.50
2022-11-05T07:11:40.683Z,4.40
2022-11-05T07:14:28.650Z,4.50
2022-11-05T07:17:18.235Z,4.50
2022-11-05T07:20:09.576Z,4.50
2022-11-05T07:23:03.834Z,4.50
2022-11-05T07:25:52.049Z,4.50
2022-11-05T07:28:39.841Z,4.50
2022-11-05T07:31:27.292Z,4.50
2022-11-05T07:34:14.952Z,4.40
2022-11-05T07:37:04.339Z,4.60
2022-11-05T07:39:52.439Z,4.60
2022-11-05T07:42:42.615Z,4.60
2022-11-05T07:45:31.705Z,4.60
2022-11-05T07:48:19.892Z,4.70
2022-11-05T07:51:09.646Z,4.90
2022-11-05T07:53:58.802Z,4.70
2022-11-05T07:56:48.101Z,4.80
2022-11-05T07:59:36.246Z,4.80
2022-11-05T08:02:24.542Z,4.90
2022-11-05T08:05:13.726Z,5.00
2022-11-05T08:08:01.556Z,5.00
2022-11-05T08:10:50.863Z,5.10
2022-11-05T08:13:39.276Z,5.10
2022-11-05T08:16:27.069Z,5.20
2022-11-05T08:19:14.534Z,5.20
2022-11-05T08:22:02.125Z,5.30
2022-11-05T08:24:49.874Z,5.40
2022-11-05T08:27:39.210Z,5.50
2022-11-05T08:30:28.366Z,5.60
2022-11-05T08:33:16.023Z,5.70
2022-11-05T08:36:04.333Z,5.90
2022-11-05T08:38:52.778Z,6.10
2022-11-05T08:41:42.836Z,6.30
2022-11-05T08:44:31.980Z,6.40
2022-11-05T08:47:19.659Z,6.60
2022-11-05T08:50:08.455Z,6.70
2022-11-05T08:52:56.655Z,6.90
2022-11-05T08:55:46.559Z,7.00
2022-11-05T08:58:34.039Z,7.10
2022-11-05T09:01:23.326Z,7.20
2022-11-05T09:04:14.597Z,7.30
2022-11-05T09:07:04.640Z,7.40
2022-11-05T09:09:52.666Z,7.40
2022-11-05T09:12:41.408Z,7.50
2022-11-05T09:15:29.744Z,7.60
2022-11-05T09:18:19.224Z,7.60
2022-11-05T09:21:06.690Z,7.70
2022-11-05T09:23:54.307Z,7.80
2022-11-05T09:26:42.258Z,7.80
2022-11-05T09:29:30.238Z,7.90
2022-11-05T09:32:19.459Z,7.90
2022-11-05T09:35:09.514Z,8.00
2022-11-05T09:38:00.939Z,8.00
2022-11-05T09:40:55.097Z,8.10
2022-11-05T09:43:43.653Z,8.20
2022-11-05T09:46:39.164Z,8.30
2022-11-05T09:49:28.086Z,8.40
2022-11-05T09:52:20.079Z,8.40
2022-11-05T09:55:11.129Z,8.50
2022-11-05T09:58:00.649Z,8.60
2022-11-05T10:00:50.924Z,8.60
2022-11-05T10:03:43.492Z,8.90
2022-11-05T10:06:31.669Z,8.90
2022-11-05T10:09:23.257Z,8.90
2022-11-05T10:12:14.334Z,9.00
2022-11-05T10:15:07.148Z,9.00
2022-11-05T10:17:57.210Z,9.10
2022-11-05T10:20:45.661Z,9.20
2022-11-05T10:23:34.347Z,9.20
2022-11-05T10:26:29.597Z,9.30
2022-11-05T10:29:23.023Z,9.30
2022-11-05T10:32:14.000Z,9.40
2022-11-05T10:35:04.082Z,9.40
2022-11-05T10:37:53.567Z,9.40
2022-11-05T10:40:44.367Z,9.50
2022-11-05T10:43:39.188Z,9.60
2022-11-05T10:46:32.521Z,9.60
2022-11-05T10:49:27.669Z,9.60
2022-11-05T10:52:21.440Z,9.60
2022-11-05T10:55:16.085Z,9.50
2022-11-05T10:58:11.319Z,9.50
2022-11-05T11:01:05.145Z,10.90
2022-11-05T11:03:54.065Z,9.50
2022-11-05T11:06:45.517Z,9.60
2022-11-05T11:09:34.301Z,9.70
2022-11-05T11:12:23.976Z,9.90
2022-11-05T11:15:15.360Z,10.00
2022-11-05T11:18:19.356Z,10.10
2022-11-05T11:21:08.008Z,10.30
2022-11-05T11:23:56.791Z,10.50
2022-11-05T11:26:46.563Z,10.70
2022-11-05T11:29:41.146Z,11.00
2022-11-05T11:32:33.819Z,11.10
2022-11-05T11:35:24.109Z,11.30
2022-11-05T11:38:15.508Z,11.40
2022-11-05T11:41:09.960Z,11.90
2022-11-05T11:44:00.893Z,11.80
2022-11-05T11:46:50.072Z,11.80
2022-11-05T11:49:41.999Z,11.90
2022-11-05T11:52:32.230Z,11.70
2022-11-05T11:55:21.229Z,11.60
2022-11-05T11:58:11.375Z,11.60
2022-11-05T12:01:03.788Z,11.70
2022-11-05T12:03:52.860Z,11.80
2022-11-05T12:06:42.435Z,11.60
2022-11-05T12:09:35.828Z,11.60
2022-11-05T12:12:27.320Z,11.60
2022-11-05T12:15:26.212Z,11.70
2022-11-05T12:18:19.312Z,11.80
2022-11-05T12:21:07.967Z,11.90
2022-11-05T12:24:05.684Z,11.90
2022-11-05T12:27:01.622Z,12.00
2022-11-05T12:29:53.388Z,12.10
2022-11-05T12:32:46.675Z,12.10
2022-11-05T12:35:44.250Z,12.10
2022-11-05T12:38:56.487Z,12.10
2022-11-05T12:41:47.721Z,12.10
2022-11-05T12:44:48.273Z,12.00
2022-11-05T12:47:41.979Z,11.90
2022-11-05T12:50:33.650Z,11.90
2022-11-05T12:53:34.237Z,11.80
2022-11-05T12:56:22.736Z,11.80
2022-11-05T12:59:14.116Z,11.80
2022-11-05T13:02:04.679Z,11.90
2022-11-05T13:04:54.438Z,12.00
2022-11-05T13:07:46.024Z,12.00
2022-11-05T13:10:36.295Z,12.00
2022-11-05T13:13:26.455Z,12.20
2022-11-05T13:16:18.184Z,12.10
2022-11-05T13:19:13.261Z,11.90
2022-11-05T13:22:08.027Z,11.90
2022-11-05T13:24:57.544Z,11.90
2022-11-05T13:27:50.090Z,12.00
2022-11-05T13:30:39.686Z,12.00
2022-11-05T13:33:29.055Z,12.00
2022-11-05T13:36:49.849Z,11.90
2022-11-05T13:39:42.715Z,12.00
2022-11-05T13:42:52.857Z,12.00
2022-11-05T13:45:51.129Z,11.90
2022-11-05T13:48:45.611Z,12.00
2022-11-05T13:51:55.161Z,12.00
2022-11-05T13:55:02.488Z,12.00
2022-11-05T13:58:09.445Z,12.20
2022-11-05T14:01:02.921Z,12.20
2022-11-05T14:03:51.931Z,12.20
2022-11-05T14:06:39.311Z,12.20
2022-11-05T14:09:28.729Z,12.30
2022-11-05T14:12:20.637Z,12.30
2022-11-05T14:15:17.612Z,12.30
2022-11-05T14:18:06.899Z,12.30
2022-11-05T14:21:00.590Z,12.30
2022-11-05T14:23:52.261Z,12.30
2022-11-05T14:26:41.897Z,12.20
2022-11-05T14:29:38.013Z,12.20
2022-11-05T14:32:27.156Z,12.10
2022-11-05T14:35:41.894Z,12.00
2022-11-05T14:38:29.465Z,12.00
2022-11-05T14:41:17.452Z,12.00
2022-11-05T14:44:08.279Z,11.90
2022-11-05T14:46:57.406Z,11.90
2022-11-05T14:49:51.170Z,11.80
2022-11-05T14:52:39.913Z,11.70
2022-11-05T14:55:29.674Z,11.70
2022-11-05T14:58:29.184Z,11.70
2022-11-05T15:01:32.059Z,12.30
2022-11-05T15:04:27.281Z,11.50
2022-11-05T15:07:26.062Z,11.50
2022-11-05T15:10:15.100Z,11.40
2022-11-05T15:13:04.673Z,11.40
2022-11-05T15:15:53.066Z,11.30
2022-11-05T15:18:44.392Z,11.20
2022-11-05T15:21:35.641Z,11.30
2022-11-05T15:24:22.956Z,11.10
2022-11-05T15:27:26.655Z,11.10
2022-11-05T15:30:18.602Z,11.00
2022-11-05T15:33:09.841Z,11.00
2022-11-05T15:36:08.898Z,10.90
2022-11-05T15:42:08.277Z,10.90
2022-11-05T15:44:56.441Z,10.80
2022-11-05T15:47:46.919Z,10.80
2022-11-05T15:50:34.864Z,10.80
2022-11-05T15:56:41.642Z,10.80
2022-11-05T15:59:30.393Z,10.70
2022-11-05T16:02:29.931Z,10.60
2022-11-05T16:05:17.166Z,10.60
2022-11-05T16:08:05.571Z,10.60
2022-11-05T16:10:53.427Z,10.60
2022-11-05T16:13:42.991Z,10.60
2022-11-05T16:16:34.505Z,10.60
2022-11-05T16:19:39.862Z,10.60
2022-11-05T16:22:45.162Z,10.50
2022-11-05T16:25:42.679Z,10.30
2022-11-05T16:28:31.243Z,10.30
2022-11-05T16:31:25.642Z,10.30
2022-11-05T16:34:25.762Z,10.30
2022-11-05T16:37:14.050Z,10.20
2022-11-05T16:40:03.745Z,10.20
2022-11-05T16:42:51.594Z,10.20
2022-11-05T16:45:41.406Z,10.00
2022-11-05T16:48:33.058Z,10.10
2022-11-05T16:51:26.232Z,10.10
2022-11-05T16:54:14.865Z,10.10
2022-11-05T16:57:03.096Z,10.00
2022-11-05T16:59:50.388Z,10.00
2022-11-05T17:02:38.119Z,9.80
2022-11-05T17:05:27.875Z,9.90
2022-11-05T17:08:15.536Z,9.90
2022-11-05T17:11:03.384Z,9.90
2022-11-05T17:13:51.648Z,9.90
2022-11-05T17:16:39.570Z,9.80
2022-11-05T17:19:27.351Z,9.80
2022-11-05T17:22:15.858Z,9.80
2022-11-05T17:25:03.605Z,9.80
2022-11-05T17:27:51.758Z,9.70
2022-11-05T17:30:41.706Z,9.70
2022-11-05T17:33:30.251Z,9.70
2022-11-05T17:36:17.890Z,9.70
2022-11-05T17:39:06.732Z,9.70
2022-11-05T17:41:55.784Z,9.70
2022-11-05T17:44:43.162Z,9.60
2022-11-05T17:47:31.143Z,9.60
2022-11-05T17:50:18.586Z,9.60
2022-11-05T17:53:06.671Z,9.60
2022-11-05T17:55:55.872Z,9.50
2022-11-05T17:58:43.750Z,9.50
2022-11-05T18:01:32.739Z,9.50
2022-11-05T18:04:23.467Z,9.50
2022-11-05T18:07:11.391Z,9.50
2022-11-05T18:09:58.576Z,9.50
2022-11-05T18:12:48.564Z,9.40
2022-11-05T18:15:40.934Z,9.40
2022-11-05T18:18:28.602Z,9.40
2022-11-05T18:21:15.741Z,9.40
2022-11-05T18:24:03.488Z,9.50
2022-11-05T18:26:51.377Z,9.50
2022-11-05T18:29:40.009Z,9.50
2022-11-05T18:32:27.947Z,9.50
2022-11-05T18:35:16.157Z,9.50
2022-11-05T18:38:03.765Z,9.50
2022-11-05T18:40:51.743Z,9.50
2022-11-05T18:43:39.432Z,9.50
2022-11-05T18:46:55.994Z,9.50
2022-11-05T18:49:37.232Z,9.50
2022-11-05T18:52:26.651Z,9.50
2022-11-05T18:55:14.707Z,9.50
2022-11-05T18:58:02.775Z,9.50
2022-11-05T19:00:50.328Z,9.50
2022-11-05T19:03:39.424Z,9.60
2022-11-05T19:06:28.298Z,9.50
2022-11-05T19:09:16.144Z,9.40
2022-11-05T19:12:04.206Z,9.10
2022-11-05T19:14:51.274Z,9.50
2022-11-05T19:17:39.316Z,9.50
2022-11-05T19:20:31.313Z,9.50
2022-11-05T19:23:21.467Z,9.50
2022-11-05T19:26:09.636Z,9.50
2022-11-05T19:28:58.392Z,9.50
2022-11-05T19:31:45.624Z,9.60
2022-11-05T19:34:33.020Z,9.50
2022-11-05T19:37:22.574Z,9.60
2022-11-05T19:40:11.337Z,9.60
2022-11-05T19:42:58.450Z,9.60
2022-11-05T19:45:46.238Z,9.60
2022-11-05T19:48:34.063Z,9.60
2022-11-05T19:51:22.394Z,9.60
2022-11-05T19:54:11.012Z,9.60
2022-11-05T19:56:58.713Z,9.70
2022-11-05T19:59:45.984Z,9.70
2022-11-05T20:02:33.925Z,9.70
2022-11-05T20:05:21.339Z,9.60
2022-11-05T20:08:08.606Z,9.60
2022-11-05T20:10:57.418Z,9.50
2022-11-05T20:13:45.377Z,9.60
2022-11-05T20:16:38.037Z,9.60
2022-11-05T20:19:25.305Z,9.60
2022-11-05T20:22:13.025Z,9.50
2022-11-05T20:25:00.428Z,9.60
2022-11-05T20:27:49.674Z,9.50
2022-11-05T20:30:36.922Z,9.50
2022-11-05T20:33:24.428Z,9.60
2022-11-05T20:36:13.571Z,9.40
2022-11-05T20:39:02.844Z,9.30
2022-11-05T20:41:50.199Z,9.30
2022-11-05T20:44:38.954Z,9.20
2022-11-05T20:47:26.145Z,7.80
2022-11-05T20:50:13.423Z,9.10
2022-11-05T20:53:01.103Z,9.10
2022-11-05T20:55:49.402Z,9.10
2022-11-05T20:58:37.777Z,9.10
2022-11-05T21:01:27.554Z,9.10
2022-11-05T21:04:15.585Z,9.10
2022-11-05T21:07:03.217Z,9.10
2022-11-05T21:09:51.112Z,9.10
2022-11-05T21:12:38.315Z,9.10
2022-11-05T21:15:25.452Z,9.20
2022-11-05T21:18:15.446Z,9.20
2022-11-05T21:21:05.553Z,9.20
2022-11-05T21:23:53.146Z,9.10
2022-11-05T21:26:40.887Z,9.10
2022-11-05T21:29:28.712Z,9.10
2022-11-05T21:32:16.184Z,9.10
2022-11-05T21:35:06.008Z,9.00
2022-11-05T21:37:53.958Z,9.00
2022-11-05T21:40:42.128Z,8.90
2022-11-05T21:43:29.577Z,9.00
2022-11-05T21:46:17.738Z,8.90
2022-11-05T21:49:05.764Z,8.90
2022-11-05T21:52:12.544Z,8.90
2022-11-05T21:55:17.873Z,9.00
2022-11-05T21:58:27.937Z,9.00
2022-11-05T22:01:15.362Z,9.00
2022-11-05T22:04:03.424Z,9.00
2022-11-05T22:06:51.694Z,9.00
2022-11-05T22:09:40.334Z,9.00
2022-11-05T22:12:28.548Z,9.10
2022-11-05T22:15:15.880Z,9.00
2022-11-05T22:18:05.624Z,8.90
2022-11-05T22:20:53.455Z,8.90
2022-11-05T22:23:41.385Z,8.90
2022-11-05T22:26:31.453Z,8.80
2022-11-05T22:29:19.313Z,8.90
2022-11-05T22:32:06.607Z,8.70
2022-11-05T22:34:54.496Z,8.70
2022-11-05T22:37:42.303Z,8.70
2022-11-05T22:40:29.608Z,8.70
2022-11-05T22:43:19.369Z,8.60
2022-11-05T22:46:08.115Z,8.60
2022-11-05T22:48:58.240Z,8.60
2022-11-05T22:51:45.705Z,8.70
2022-11-05T22:54:38.889Z,8.70
2022-11-05T22:57:27.620Z,8.70
2022-11-05T23:00:18.454Z,8.60
2022-11-05T23:03:05.747Z,8.60
2022-11-05T23:05:57.511Z,8.60
2022-11-05T23:09:02.819Z,8.60
2022-11-05T23:11:51.470Z,8.60
2022-11-05T23:14:42.296Z,8.60
2022-11-05T23:17:48.578Z,8.60
2022-11-05T23:20:56.159Z,8.70
2022-11-05T23:24:01.016Z,8.70
2022-11-05T23:26:51.015Z,8.80
2022-11-05T23:29:38.573Z,8.80
2022-11-05T23:32:28.143Z,8.90
2022-11-05T23:35:17.595Z,8.90
2022-11-05T23:38:22.919Z,8.80
2022-11-05T23:41:28.136Z,8.80
2022-11-05T23:44:33.444Z,8.80
2022-11-05T23:47:40.585Z,8.80
2022-11-05T23:50:33.215Z,8.80
2022-11-05T23:53:23.404Z,8.80
2022-11-05T23:56:11.545Z,8.90
2022-11-05T23:58:59.676Z,8.90
